Time;durP1;ratioP1;P1;durP2;ratioP2;P2;SDS_P1;SDS_P2;PMS_P1;PMS_P2;Temp;Humidity;BMP_temperature;BMP_pressure;BME280_temperature;BME280_humidity;BME280_pressure;Samples;Min_cycle;Max_cycle;Signal;HPM_P1;HPM_P2
2022/03/21 00:01:45;;;;;;;35.13;18.12;;;;;;;-3.63;50.43;102070.23;1697275;84;21220;-79
2022/03/21 00:04:51;;;;;;;49.63;21.42;;;;;;;-3.74;51.37;102057.63;1696128;84;21228;-79
2022/03/21 00:07:56;;;;;;;42.67;20.48;;;;;;;-3.76;52.39;102056.34;1696984;84;21215;-79
2022/03/21 00:11:02;;;;;;;37.38;18.15;;;;;;;-3.75;53.07;102058.09;1705709;83;21235;-78
2022/03/21 00:14:11;;;;;;;34.13;17.70;;;;;;;-3.72;53.47;102060.66;1723702;83;21750;-78
2022/03/21 00:17:17;;;;;;;45.63;18.35;;;;;;;-3.69;53.88;102054.36;1688846;85;21208;-78
2022/03/21 00:20:25;;;;;;;35.95;17.77;;;;;;;-3.65;53.97;102048.88;1689753;85;21853;-78
2022/03/21 00:23:34;;;;;;;32.28;16.25;;;;;;;-3.61;54.13;102038.98;1689006;85;21243;-78
2022/03/21 00:26:40;;;;;;;32.60;16.73;;;;;;;-3.58;54.43;102041.55;1688814;84;21220;-78
2022/03/21 00:29:48;;;;;;;42.98;17.42;;;;;;;-3.56;54.48;102028.16;1688785;85;21256;-78
2022/03/21 00:32:54;;;;;;;37.25;16.82;;;;;;;-3.57;54.64;102021.93;1690050;85;21220;-79
2022/03/21 00:36:00;;;;;;;30.57;15.72;;;;;;;-3.56;54.69;102017.45;1688612;84;21216;-79
2022/03/21 00:39:06;;;;;;;29.23;16.02;;;;;;;-3.57;54.71;102013.91;1688398;85;21256;-78
2022/03/21 00:42:12;;;;;;;36.90;15.98;;;;;;;-3.56;54.71;102012.10;1688657;84;22537;-78
2022/03/21 00:45:23;;;;;;;27.62;14.55;;;;;;;-3.56;54.71;102010.77;1690101;85;21224;-78
2022/03/21 00:48:33;;;;;;;31.52;15.50;;;;;;;-3.58;54.79;102005.44;1689938;85;21224;-78
2022/03/21 00:51:40;;;;;;;29.80;15.35;;;;;;;-3.60;54.96;102006.83;1688870;85;21251;-78
2022/03/21 00:54:46;;;;;;;40.35;16.23;;;;;;;-3.61;55.09;101993.05;1689839;85;21216;-78
2022/03/21 00:57:52;;;;;;;38.85;17.67;;;;;;;-3.60;55.09;101988.11;1689845;85;21204;-78
2022/03/21 01:00:58;;;;;;;35.75;16.50;;;;;;;-3.55;55.06;101991.11;1689638;85;21204;-78
2022/03/21 01:04:01;;;;;;;32.88;16.40;;;;;;;-3.50;55.10;101993.19;1688945;84;21255;-79
2022/03/21 01:07:08;;;;;;;32.67;16.75;;;;;;;-3.46;55.14;101987.70;1690378;85;21250;-78
2022/03/21 01:10:18;;;;;;;41.25;18.02;;;;;;;-3.47;55.12;101984.62;1689069;84;21196;-78
2022/03/21 01:13:26;;;;;;;40.75;17.20;;;;;;;-3.47;55.23;101987.76;1687170;83;21252;-78
2022/03/21 01:16:31;;;;;;;33.13;16.40;;;;;;;-3.49;55.29;101983.77;1687453;85;21740;-78
2022/03/21 01:19:39;;;;;;;34.43;17.48;;;;;;;-3.47;55.29;101984.62;1687323;85;21260;-78
2022/03/21 01:22:46;;;;;;;31.82;16.95;;;;;;;-3.48;55.24;101993.57;1687446;85;21192;-78
2022/03/21 01:25:51;;;;;;;30.62;15.48;;;;;;;-3.48;55.29;101996.25;1687812;85;21184;-78
2022/03/21 01:28:57;;;;;;;38.45;15.25;;;;;;;-3.49;55.36;101992.26;1687654;85;21849;-78
2022/03/21 01:32:02;;;;;;;30.55;14.58;;;;;;;-3.50;55.36;101995.86;1686688;85;21228;-78
2022/03/21 01:35:08;;;;;;;39.20;15.95;;;;;;;-3.53;55.41;102003.50;1687433;85;21236;-79
2022/03/21 01:38:15;;;;;;;30.37;14.70;;;;;;;-3.53;55.39;101998.61;1687417;85;21279;-78
2022/03/21 01:41:21;;;;;;;27.50;15.35;;;;;;;-3.57;55.51;101995.18;1718268;83;21184;-78
2022/03/21 01:44:26;;;;;;;33.92;14.93;;;;;;;-3.58;55.61;101990.72;1718216;83;21759;-79
2022/03/21 01:47:33;;;;;;;29.18;15.03;;;;;;;-3.59;55.79;101984.97;1719851;83;21244;-78
2022/03/21 01:50:40;;;;;;;24.80;14.20;;;;;;;-3.56;55.92;101986.23;1687296;85;21248;-78
2022/03/21 01:57:11;;;;;;;26.68;14.20;;;;;;;-3.53;55.84;101988.79;1719534;83;21211;-78
2022/03/21 02:00:18;;;;;;;25.92;14.20;;;;;;;-3.51;55.85;101991.44;1700993;83;21196;-78
2022/03/21 02:03:26;;;;;;;28.30;13.75;;;;;;;-3.48;55.74;101993.57;1718374;83;21271;-78
2022/03/21 02:06:28;;;;;;;36.28;16.12;;;;;;;-3.46;55.79;101994.39;1719862;83;21200;-78
2022/03/21 02:09:33;;;;;;;31.15;16.85;;;;;;;-3.45;55.85;101993.45;1686528;85;21235;-78
2022/03/21 02:12:40;;;;;;;27.80;14.60;;;;;;;-3.47;55.93;101990.43;1686207;83;21252;-78
2022/03/21 02:15:47;;;;;;;33.48;15.50;;;;;;;-3.51;56.22;101983.41;1687291;85;21201;-78
2022/03/21 02:18:52;;;;;;;29.32;14.75;;;;;;;-3.58;56.48;101974.67;1687339;85;21244;-78
2022/03/21 02:22:34;;;;;;;30.40;15.15;;;;;;;-3.66;56.72;101970.04;1718054;83;22464;-78
2022/03/21 02:25:43;;;;;;;43.92;17.23;;;;;;;-3.75;57.00;101959.61;1688114;85;21204;-77
2022/03/21 02:28:50;;;;;;;27.37;14.23;;;;;;;-3.85;57.38;101967.02;1687479;85;21196;-77
2022/03/21 02:31:55;;;;;;;39.33;17.00;;;;;;;-3.95;57.95;101963.73;1687014;85;21252;-77
2022/03/21 02:35:02;;;;;;;46.45;18.27;;;;;;;-4.02;58.27;101971.96;1687099;85;21196;-77
2022/03/21 02:38:09;;;;;;;37.60;18.92;;;;;;;-4.04;58.67;101968.47;1695515;84;21204;-77
2022/03/21 02:41:15;;;;;;;46.00;19.98;;;;;;;-4.03;58.83;101963.53;1686075;85;21232;-77
2022/03/21 02:44:21;;;;;;;39.63;19.80;;;;;;;-4.02;58.72;101959.47;1687316;85;21200;-77
2022/03/21 02:47:28;;;;;;;40.98;19.45;;;;;;;-4.03;58.74;101956.85;1687240;85;21180;-77
2022/03/21 02:50:49;;;;;;;45.10;20.60;;;;;;;-4.08;58.85;101947.63;1687264;85;21200;-78
2022/03/21 02:53:56;;;;;;;50.85;21.23;;;;;;;-4.11;59.07;101942.36;1688204;85;21185;-77
2022/03/21 02:57:02;;;;;;;48.98;21.57;;;;;;;-4.16;59.18;101942.95;1687518;85;21204;-77
2022/03/21 03:00:02;;;;;;;52.00;20.62;;;;;;;-4.19;59.34;101945.69;1687202;85;21204;-77
2022/03/21 03:03:00;;;;;;;52.85;21.27;;;;;;;-4.21;59.54;101951.55;1685856;85;21235;-77
2022/03/21 03:06:07;;;;;;;49.25;21.93;;;;;;;-4.24;59.80;101944.94;1687125;85;21311;-77
2022/03/21 03:09:13;;;;;;;65.85;23.38;;;;;;;-4.27;60.21;101935.70;1687213;85;21414;-77
2022/03/21 03:12:20;;;;;;;46.70;21.12;;;;;;;-4.27;60.48;101938.37;1719560;83;21251;-78
2022/03/21 03:15:27;;;;;;;44.08;21.25;;;;;;;-4.27;60.71;101943.25;1718370;82;21786;-77
2022/03/21 03:18:33;;;;;;;49.50;21.45;;;;;;;-4.24;61.00;101942.27;1687452;85;21232;-77
2022/03/21 03:21:47;;;;;;;52.27;22.07;;;;;;;-4.20;61.13;101936.80;1687064;85;21196;-77
2022/03/21 03:24:53;;;;;;;56.23;23.20;;;;;;;-4.15;61.12;101928.66;1686190;85;21204;-77
2022/03/21 03:28:00;;;;;;;57.62;23.85;;;;;;;-4.13;61.08;101934.39;1719535;83;21560;-77
2022/03/21 03:31:07;;;;;;;55.25;24.52;;;;;;;-4.11;61.18;101924.52;1719331;83;21321;-77
2022/03/21 03:34:13;;;;;;;58.20;25.12;;;;;;;-4.10;61.21;101926.73;1718162;83;21770;-77
2022/03/21 03:37:19;;;;;;;80.53;28.75;;;;;;;-4.10;61.38;101928.06;1719413;83;21252;-78
2022/03/21 03:40:26;;;;;;;79.15;30.88;;;;;;;-4.08;61.84;101929.38;1719246;83;21247;-78
2022/03/21 03:43:32;;;;;;;80.62;32.10;;;;;;;-4.09;62.16;101924.50;1718665;83;21188;-78
2022/03/21 03:46:38;;;;;;;98.05;34.70;;;;;;;-4.09;62.28;101916.48;1719440;83;21188;-78
2022/03/21 03:49:44;;;;;;;94.92;33.38;;;;;;;-4.10;62.62;101921.38;1719598;83;21176;-78
2022/03/21 03:52:51;;;;;;;113.57;33.92;;;;;;;-4.12;62.94;101912.55;1719398;83;21794;-78
2022/03/21 03:55:57;;;;;;;99.85;34.03;;;;;;;-4.14;63.27;101909.93;1717980;83;21215;-78
2022/03/21 03:59:02;;;;;;;86.67;32.83;;;;;;;-4.15;63.38;101905.94;1687132;85;21231;-77
2022/03/21 04:02:10;;;;;;;89.83;31.50;;;;;;;-4.13;63.77;101902.78;1685686;84;21243;-78
2022/03/21 04:05:10;;;;;;;78.95;29.98;;;;;;;-4.12;64.01;101900.52;1687212;85;21248;-77
2022/03/21 04:08:16;;;;;;;86.60;30.32;;;;;;;-4.08;64.17;101894.17;1687633;85;21723;-78
2022/03/21 04:11:21;;;;;;;95.32;30.25;;;;;;;-4.03;64.24;101892.23;1687259;85;21228;-77
2022/03/21 04:14:29;;;;;;;80.80;29.48;;;;;;;-3.96;64.29;101891.12;1686176;85;21239;-78
2022/03/21 04:17:35;;;;;;;85.30;31.17;;;;;;;-3.87;64.35;101889.97;1687375;85;21208;-78
2022/03/21 04:20:42;;;;;;;74.42;30.15;;;;;;;-3.76;64.41;101891.02;1687139;85;21180;-78
2022/03/21 04:23:49;;;;;;;77.20;28.65;;;;;;;-3.66;64.36;101883.98;1686594;85;21204;-78
2022/03/21 04:26:55;;;;;;;92.02;32.90;;;;;;;-3.53;64.40;101888.47;1686472;85;21224;-78
2022/03/21 04:30:01;;;;;;;87.42;32.60;;;;;;;-3.39;64.61;101888.94;1687082;85;21771;-78
2022/03/21 04:33:01;;;;;;;96.53;34.88;;;;;;;-3.26;64.76;101882.70;1686964;85;21252;-78
2022/03/21 04:35:54;;;;;;;92.60;35.25;;;;;;;-3.11;64.94;101886.68;1685836;85;21799;-78
2022/03/21 04:39:03;;;;;;;99.05;35.73;;;;;;;-2.99;65.34;101887.63;1687107;85;21216;-79
2022/03/21 04:42:10;;;;;;;101.33;37.42;;;;;;;-2.83;65.29;101891.98;1717806;82;21275;-79
2022/03/21 04:45:16;;;;;;;137.62;43.95;;;;;;;-2.67;65.44;101894.56;1718109;83;21812;-79
2022/03/21 04:48:22;;;;;;;162.15;50.20;;;;;;;-2.50;65.83;101893.95;1719311;83;21200;-79
2022/03/21 04:51:28;;;;;;;151.35;51.00;;;;;;;-2.29;65.95;101895.01;1718107;83;21184;-79
2022/03/21 04:54:34;;;;;;;165.73;49.08;;;;;;;-2.07;65.62;101900.44;1686094;85;21224;-77
2022/03/21 04:57:39;;;;;;;142.60;44.18;;;;;;;-1.87;65.10;101907.30;1685949;85;21243;-79
2022/03/21 05:00:45;;;;;;;151.87;47.70;;;;;;;-1.64;64.17;101908.23;1717707;83;21247;-78
2022/03/21 05:03:53;;;;;;;137.28;48.15;;;;;;;-1.40;63.48;101911.28;1719194;83;21207;-78
2022/03/21 05:06:58;;;;;;;129.23;46.23;;;;;;;-1.17;62.87;101905.47;1719180;83;21243;-78
2022/03/21 05:10:03;;;;;;;133.45;46.10;;;;;;;-0.97;62.43;101906.85;1718984;83;21210;-78
2022/03/21 05:13:10;;;;;;;111.17;38.83;;;;;;;-0.79;61.75;101907.91;1686020;85;21846;-79
2022/03/21 05:16:18;;;;;;;95.10;34.08;;;;;;;-0.59;61.04;101907.05;1717181;83;21794;-78
2022/03/21 05:19:24;;;;;;;102.45;33.70;;;;;;;-0.44;60.44;101902.81;1695892;84;21255;-78
2022/03/21 05:22:30;;;;;;;124.82;37.98;;;;;;;-0.29;59.86;101898.97;1697432;84;21739;-79
2022/03/21 05:32:04;;;;;;;113.00;36.85;;;;;;;0.23;58.67;101894.37;1697444;84;21263;-79
2022/03/21 05:38:01;;;;;;;107.12;35.10;;;;;;;0.54;58.04;101888.43;1697373;84;21264;-79
2022/03/21 05:41:08;;;;;;;167.32;42.93;;;;;;;0.67;57.90;101884.68;1695909;84;21247;-78
2022/03/21 05:44:13;;;;;;;181.30;44.48;;;;;;;0.82;57.62;101889.79;1696040;84;21232;-79
2022/03/21 05:47:20;;;;;;;138.47;42.75;;;;;;;0.98;57.50;101884.02;1697249;84;21292;-79
2022/03/21 05:50:25;;;;;;;139.55;39.88;;;;;;;1.16;57.37;101883.10;1697197;84;21739;-79
2022/03/21 05:53:24;;;;;;;112.15;41.40;;;;;;;1.34;57.12;101876.39;1697257;84;21306;-79
2022/03/21 05:56:21;;;;;;;91.45;35.98;;;;;;;1.51;56.67;101875.91;1696084;84;21280;-77
2022/03/21 06:02:51;;;;;;;84.40;35.13;;;;;;;1.82;55.73;101881.02;1696450;84;21240;-78
2022/03/21 06:05:59;;;;;;;83.95;35.50;;;;;;;1.99;55.30;101878.78;1695894;84;21207;-78
2022/03/21 06:09:05;;;;;;;78.75;33.05;;;;;;;2.16;55.01;101875.14;1697149;84;21188;-78
2022/03/21 06:12:13;;;;;;;69.17;29.90;;;;;;;2.33;54.60;101873.74;1695047;84;21223;-78
2022/03/21 06:15:18;;;;;;;63.02;29.10;;;;;;;2.50;53.89;101876.87;1694701;84;21834;-79
2022/03/21 06:18:24;;;;;;;57.75;25.02;;;;;;;2.63;53.30;101880.59;1703535;83;21220;-79
2022/03/21 06:21:29;;;;;;;56.77;27.48;;;;;;;2.78;53.18;101872.12;1712853;83;21517;-79
2022/03/21 06:24:35;;;;;;;67.15;27.22;;;;;;;2.94;52.46;101873.44;1712980;83;21204;-79
2022/03/21 06:27:43;;;;;;;63.70;26.37;;;;;;;3.04;52.16;101866.53;1699651;83;21301;-79
2022/03/21 06:30:51;;;;;;;53.50;26.40;;;;;;;3.16;52.04;101866.30;1665048;86;21232;-78
2022/03/21 06:33:57;;;;;;;53.90;26.97;;;;;;;3.25;51.80;101870.69;1664832;86;21272;-77
2022/03/21 06:37:06;;;;;;;60.83;24.60;;;;;;;3.35;51.97;101868.78;1663520;86;21305;-78
2022/03/21 06:40:10;;;;;;;61.70;27.15;;;;;;;3.48;51.47;101880.58;1664608;86;21229;-78
2022/03/21 06:43:16;;;;;;;55.43;24.07;;;;;;;3.57;51.40;101874.13;1674155;85;21252;-77
2022/03/21 06:46:22;;;;;;;55.58;25.72;;;;;;;3.70;51.33;101868.84;1682720;85;21250;-78
2022/03/21 06:49:27;;;;;;;48.78;23.83;;;;;;;3.88;51.43;101864.63;1683855;85;21732;-79
2022/03/21 06:52:22;;;;;;;58.10;25.68;;;;;;;4.09;51.15;101853.34;1684163;85;21319;-78
2022/03/21 06:55:10;;;;;;;57.65;24.07;;;;;;;4.29;50.64;101865.59;1683834;85;21811;-79
2022/03/21 06:58:12;;;;;;;58.95;24.57;;;;;;;4.47;50.30;101860.84;1688432;84;21247;-79
2022/03/21 07:01:18;;;;;;;58.75;26.57;;;;;;;4.64;49.92;101854.30;1692855;84;21196;-79
2022/03/21 07:04:26;;;;;;;61.95;26.97;;;;;;;4.78;49.56;101847.48;1693270;84;21787;-79
2022/03/21 07:07:32;;;;;;;64.53;24.30;;;;;;;4.94;49.03;101854.59;1691820;84;21219;-78
2022/03/21 07:10:44;;;;;;;68.55;23.75;;;;;;;5.09;48.11;101848.17;1692530;84;21223;-79
2022/03/21 07:13:48;;;;;;;45.20;21.35;;;;;;;5.23;47.99;101844.03;1693286;84;21207;-79
2022/03/21 07:16:54;;;;;;;45.70;19.73;;;;;;;5.37;47.32;101841.24;1692094;84;21786;-79
2022/03/21 07:20:02;;;;;;;48.40;21.52;;;;;;;5.54;46.46;101840.05;1709163;82;21214;-79
2022/03/21 07:23:08;;;;;;;45.08;19.80;;;;;;;5.67;46.26;101838.72;1685996;85;21201;-79
2022/03/21 07:26:14;;;;;;;42.10;21.23;;;;;;;5.79;46.11;101831.08;1685696;85;21254;-79
2022/03/21 07:29:20;;;;;;;37.63;18.57;;;;;;;5.93;45.05;101837.39;1710680;83;21291;-79
2022/03/21 07:32:26;;;;;;;34.08;18.12;;;;;;;6.10;44.36;101837.06;1711668;84;21260;-78
2022/03/21 07:35:32;;;;;;;44.77;21.27;;;;;;;6.23;44.47;101838.41;1712111;84;21256;-78
2022/03/21 07:38:39;;;;;;;49.70;20.37;;;;;;;6.34;44.18;101841.20;1711789;84;21224;-79
2022/03/21 07:41:45;;;;;;;31.10;18.10;;;;;;;6.42;43.88;101831.14;1711694;84;21758;-78
2022/03/21 07:48:14;;;;;;;34.48;16.20;;;;;;;6.54;43.42;101830.22;1711519;84;21542;-79
2022/03/21 07:51:21;;;;;;;31.33;17.57;;;;;;;6.61;42.25;101818.79;1711703;84;21727;-79
2022/03/21 07:54:28;;;;;;;33.42;15.00;;;;;;;6.72;42.07;101812.54;1712068;84;21303;-78
2022/03/21 07:57:34;;;;;;;26.12;13.95;;;;;;;6.80;41.11;101814.70;1710685;84;21232;-78
2022/03/21 08:00:43;;;;;;;28.73;15.45;;;;;;;6.90;40.41;101813.88;1711164;84;21211;-78
2022/03/21 08:03:50;;;;;;;23.40;12.03;;;;;;;7.03;40.47;101808.38;1711375;84;21232;-79
2022/03/21 08:06:59;;;;;;;22.32;12.03;;;;;;;7.18;38.47;101815.86;1710606;84;21283;-79
2022/03/21 08:10:06;;;;;;;25.08;12.45;;;;;;;7.27;38.23;101809.71;1710161;84;21247;-79
2022/03/21 08:13:13;;;;;;;21.10;12.55;;;;;;;7.37;38.88;101815.31;1699010;83;21288;-79
2022/03/21 08:16:20;;;;;;;23.05;13.32;;;;;;;7.50;37.54;101822.04;1687704;85;21292;-79
2022/03/21 08:19:27;;;;;;;21.57;12.30;;;;;;;7.57;38.44;101800.99;1698528;83;21726;-79
2022/03/21 08:22:32;;;;;;;20.12;12.30;;;;;;;7.63;38.11;101802.39;1724720;83;21215;-79
2022/03/21 08:25:37;;;;;;;19.25;12.53;;;;;;;7.73;37.60;101797.95;1725069;83;21243;-78
2022/03/21 08:28:45;;;;;;;20.68;11.73;;;;;;;7.80;37.56;101796.45;1716065;83;21223;-79
2022/03/21 08:31:51;;;;;;;18.50;11.03;;;;;;;7.83;37.46;101792.13;1712381;83;21238;-79
2022/03/21 08:34:57;;;;;;;17.12;9.68;;;;;;;7.92;36.09;101805.52;1713713;83;21759;-78
2022/03/21 08:38:04;;;;;;;13.62;8.85;;;;;;;8.00;35.82;101796.70;1712455;83;21243;-79
2022/03/21 08:41:11;;;;;;;16.23;10.13;;;;;;;8.15;35.38;101798.22;1720845;83;21256;-79
2022/03/21 08:44:19;;;;;;;17.25;9.73;;;;;;;8.25;35.55;101795.11;1723511;83;21201;-79
2022/03/21 08:47:26;;;;;;;16.17;9.83;;;;;;;8.29;33.83;101797.09;1722294;83;21284;-79
2022/03/21 08:50:34;;;;;;;18.42;10.35;;;;;;;8.32;34.24;101792.73;1725801;83;21242;-79
2022/03/21 08:53:44;;;;;;;19.90;10.82;;;;;;;8.37;34.46;101785.08;1727980;83;21243;-80
2022/03/21 08:56:49;;;;;;;19.62;11.25;;;;;;;8.40;34.90;101788.92;1728820;83;21155;-79
2022/03/21 08:59:54;;;;;;;20.75;10.35;;;;;;;8.42;35.25;101782.37;1728775;83;21542;-79
2022/03/21 09:03:00;;;;;;;20.40;11.70;;;;;;;8.49;35.10;101787.30;1727409;82;21250;-79
2022/03/21 09:06:05;;;;;;;20.77;9.00;;;;;;;8.53;35.43;101781.47;1726320;83;21171;-79
2022/03/21 09:09:11;;;;;;;16.17;8.63;;;;;;;8.57;34.87;101803.41;1726213;83;21219;-79
2022/03/21 09:12:19;;;;;;;13.53;8.73;;;;;;;8.60;34.42;101797.67;1724967;83;21203;-79
2022/03/21 09:15:25;;;;;;;16.17;8.28;;;;;;;8.63;34.79;101772.02;1714554;83;21271;-79
2022/03/21 09:18:32;;;;;;;19.48;8.93;;;;;;;8.67;34.61;101758.00;1712980;83;21778;-79
2022/03/21 09:21:39;;;;;;;12.68;7.90;;;;;;;8.73;34.87;101757.11;1699580;83;21255;-79
2022/03/21 09:24:46;;;;;;;15.40;8.50;;;;;;;8.76;34.29;101753.64;1689441;85;21318;-79
2022/03/21 09:27:51;;;;;;;15.53;7.55;;;;;;;8.81;34.96;101743.20;1697828;83;21186;-79
2022/03/21 09:30:59;;;;;;;12.45;5.42;;;;;;;8.85;34.91;101754.22;1715246;83;21246;-78
2022/03/21 09:34:06;;;;;;;13.32;6.40;;;;;;;8.86;34.01;101739.58;1718801;83;21212;-78
2022/03/21 09:37:11;;;;;;;12.88;7.42;;;;;;;8.89;34.03;101739.33;1714077;83;21621;-78
2022/03/21 09:40:20;;;;;;;13.30;7.78;;;;;;;8.91;34.45;101723.67;1714035;83;21292;-78
2022/03/21 09:43:26;;;;;;;13.55;7.83;;;;;;;8.96;34.62;101731.47;1713252;83;21350;-79
2022/03/21 09:46:32;;;;;;;16.73;7.37;;;;;;;9.00;35.40;101749.31;1712216;83;21202;-78
2022/03/21 09:49:39;;;;;;;11.83;7.05;;;;;;;9.03;35.18;101735.39;1714059;83;21188;-78
2022/03/21 09:52:45;;;;;;;15.15;8.50;;;;;;;9.08;35.71;101724.97;1717589;83;21248;-79
2022/03/21 09:55:51;;;;;;;15.90;8.00;;;;;;;9.20;35.86;101743.50;1716232;83;21846;-79
2022/03/21 09:59:00;;;;;;;14.18;8.88;;;;;;;9.24;36.00;101721.77;1709282;83;21260;-79
2022/03/21 10:02:08;;;;;;;13.08;8.73;;;;;;;9.28;36.51;101727.33;1708371;84;21236;-79
2022/03/21 10:05:14;;;;;;;13.05;8.03;;;;;;;9.32;36.37;101732.89;1696580;83;21170;-79
2022/03/21 10:08:33;;;;;;;13.43;7.87;;;;;;;9.33;36.75;101715.50;1689126;85;21221;-79
2022/03/21 10:11:40;;;;;;;15.23;8.38;;;;;;;9.39;36.84;101726.38;1687219;85;21297;-79
2022/03/21 10:14:46;;;;;;;12.55;7.53;;;;;;;9.46;36.69;101705.23;1712257;83;21213;-78
2022/03/21 10:17:53;;;;;;;16.27;6.90;;;;;;;9.50;36.68;101694.88;1712878;83;21280;-79
2022/03/21 10:20:58;;;;;;;9.40;5.53;;;;;;;9.57;36.53;101695.22;1712998;83;21221;-79
2022/03/21 10:24:07;;;;;;;14.90;6.35;;;;;;;9.70;36.86;101679.47;1719863;83;21288;-79
2022/03/21 10:27:12;;;;;;;13.03;5.00;;;;;;;9.83;36.21;101696.97;1720223;83;21693;-79
2022/03/21 10:30:21;;;;;;;19.75;6.20;;;;;;;9.87;36.42;101671.97;1720605;83;21256;-79
2022/03/21 10:33:32;;;;;;;10.45;5.35;;;;;;;9.93;36.62;101672.80;1720596;83;21261;-78
2022/03/21 10:36:38;;;;;;;13.48;5.80;;;;;;;9.98;36.48;101662.31;1724001;83;22473;-78
2022/03/21 10:39:46;;;;;;;7.67;4.53;;;;;;;10.05;36.65;101663.11;1722361;82;21229;-79
2022/03/21 10:43:05;;;;;;;8.05;4.67;;;;;;;10.13;36.77;101635.94;1716480;83;21207;-79
2022/03/21 10:46:11;;;;;;;29.27;12.13;;;;;;;10.29;35.95;101641.73;1669226;86;21603;-79
2022/03/21 10:49:18;;;;;;;95.22;61.80;;;;;;;10.37;35.75;101635.56;1636238;84;21261;-79
2022/03/21 10:52:25;;;;;;;18.62;7.33;;;;;;;10.43;35.56;101629.01;1657604;86;21221;-79
2022/03/21 10:55:30;;;;;;;7.47;3.10;;;;;;;10.54;35.37;101664.06;1672165;85;21280;-79
2022/03/21 10:58:48;;;;;;;5.47;2.80;;;;;;;10.56;34.89;101627.36;1684654;84;21831;-79
2022/03/21 11:01:54;;;;;;;8.78;2.92;;;;;;;10.54;35.47;101626.66;1691045;84;21260;-79
2022/03/21 11:05:00;;;;;;;12.10;5.65;;;;;;;10.55;35.49;101614.70;1691191;84;21233;-79
2022/03/21 11:08:06;;;;;;;14.03;7.80;;;;;;;10.60;35.57;101607.42;1693406;84;21259;-79
2022/03/21 11:11:12;;;;;;;12.53;3.33;;;;;;;10.64;35.91;101612.97;1692310;84;21216;-79
2022/03/21 11:14:18;;;;;;;15.05;3.98;;;;;;;10.71;35.75;101600.42;1693821;84;21193;-79
2022/03/21 11:17:25;;;;;;;8.25;3.30;;;;;;;10.71;36.02;101590.84;1692247;84;21221;-79
2022/03/21 11:20:31;;;;;;;11.53;4.22;;;;;;;10.74;35.96;101591.93;1699775;84;21264;-79
2022/03/21 11:23:38;;;;;;;8.85;3.92;;;;;;;10.82;36.23;101593.91;1697196;84;21381;-79
2022/03/21 11:26:58;;;;;;;12.33;6.55;;;;;;;10.91;36.20;101589.78;1692784;85;21194;-79
2022/03/21 11:30:33;;;;;;;19.48;9.53;;;;;;;10.89;36.45;101580.02;1692468;85;21209;-79
2022/03/21 11:34:06;;;;;;;5.67;2.52;;;;;;;10.87;36.36;101602.06;1692493;85;21335;-79
2022/03/21 11:37:12;;;;;;;9.75;3.42;;;;;;;10.91;37.18;101582.08;1685912;85;21215;-79
2022/03/21 11:40:39;;;;;;;14.00;2.92;;;;;;;10.96;37.38;101572.44;1691250;85;21232;-80
2022/03/21 11:43:47;;;;;;;13.98;3.80;;;;;;;11.04;37.43;101561.23;1691372;85;21311;-80
2022/03/21 11:46:53;;;;;;;10.05;3.77;;;;;;;11.08;37.51;101565.41;1691420;85;21237;-80
2022/03/21 11:50:01;;;;;;;15.50;6.78;;;;;;;11.11;37.94;101572.83;1690863;85;21269;-80
2022/03/21 11:53:15;;;;;;;8.90;3.47;;;;;;;11.15;37.96;101569.25;1691793;85;21189;-79
2022/03/21 11:56:27;;;;;;;15.35;6.65;;;;;;;11.15;37.55;101559.19;1690163;85;21501;-81
2022/03/21 11:59:49;;;;;;;5.50;3.12;;;;;;;11.15;38.12;101559.67;1690827;85;21736;-80
2022/03/21 12:03:01;;;;;;;8.93;3.73;;;;;;;11.22;38.21;101553.97;1687682;85;21247;-80
2022/03/21 12:06:30;;;;;;;11.25;3.42;;;;;;;11.31;37.92;101553.06;1687360;85;21208;-79
2022/03/21 12:09:49;;;;;;;60.48;38.85;;;;;;;11.36;37.74;101539.77;1663278;86;21917;-78
2022/03/21 12:13:01;;;;;;;14.78;10.32;;;;;;;11.39;38.34;101544.10;1610785;86;21260;-79
2022/03/21 12:16:09;;;;;;;9.53;3.67;;;;;;;11.39;38.52;101539.99;1684763;85;21248;-79
2022/03/21 12:19:14;;;;;;;9.93;4.37;;;;;;;11.40;38.66;101523.39;1658926;86;21335;-79
2022/03/21 12:22:47;;;;;;;11.53;4.25;;;;;;;11.42;38.78;101532.82;1690904;85;21219;-78
2022/03/21 12:25:57;;;;;;;13.75;4.15;;;;;;;11.45;38.54;101522.94;1656517;86;21264;-79
2022/03/21 12:32:34;;;;;;;60.85;35.35;;;;;;;11.50;39.02;101524.20;1717881;83;21566;-78
2022/03/21 12:35:47;;;;;;;8.58;4.03;;;;;;;11.56;38.82;101532.30;1677561;84;21240;-79
2022/03/21 12:38:54;;;;;;;8.95;3.10;;;;;;;11.56;38.67;101529.56;1711745;84;21200;-79
2022/03/21 12:41:59;;;;;;;10.50;3.60;;;;;;;11.56;39.10;101531.45;1710516;84;21319;-78
2022/03/21 12:45:05;;;;;;;8.93;3.27;;;;;;;11.58;38.97;101506.14;1711695;84;21188;-79
2022/03/21 12:48:13;;;;;;;16.23;10.43;;;;;;;11.59;39.29;101506.48;1710042;83;21854;-78
2022/03/21 12:51:20;;;;;;;7.10;3.47;;;;;;;11.63;39.61;101512.02;1711224;84;21216;-79
2022/03/21 12:54:27;;;;;;;58.10;36.60;;;;;;;11.66;39.29;101496.62;1713060;83;21204;-79
2022/03/21 12:57:33;;;;;;;7.60;3.60;;;;;;;11.69;39.91;101504.55;1712379;84;21802;-78
2022/03/21 13:00:42;;;;;;;11.22;4.17;;;;;;;11.74;39.78;101499.45;1711501;84;21223;-79
2022/03/21 13:03:47;;;;;;;12.10;5.03;;;;;;;11.77;39.65;101516.98;1713477;84;21212;-78
2022/03/21 13:10:37;;;;;;;12.63;3.95;;;;;;;11.82;39.83;101483.61;1713361;84;21192;-79
2022/03/21 13:13:53;;;;;;;10.28;3.85;;;;;;;11.80;40.04;101497.97;1713289;84;21204;-79
2022/03/21 13:17:05;;;;;;;15.72;5.20;;;;;;;11.77;40.54;101494.53;1713447;83;21806;-79
2022/03/21 13:20:18;;;;;;;10.13;5.05;;;;;;;11.81;40.73;101497.83;1712385;84;21259;-79
2022/03/21 13:23:24;;;;;;;9.98;4.83;;;;;;;11.77;40.91;101495.05;1698456;83;21200;-79
2022/03/21 13:26:35;;;;;;;9.60;4.08;;;;;;;11.75;41.00;101484.73;1710800;84;21193;-79
2022/03/21 13:29:46;;;;;;;24.67;4.60;;;;;;;11.74;41.14;101466.56;1713371;84;21192;-79
2022/03/21 13:32:51;;;;;;;11.35;5.22;;;;;;;11.75;41.17;101477.87;1697463;84;21255;-79
2022/03/21 13:36:02;;;;;;;48.28;29.95;;;;;;;11.76;41.20;101478.22;1713071;84;21822;-79
2022/03/21 13:39:23;;;;;;;154.50;96.02;;;;;;;11.75;41.32;101480.61;1713266;84;21260;-79
2022/03/21 13:42:36;;;;;;;20.60;10.48;;;;;;;11.72;41.49;101476.84;1712472;84;21850;-79
2022/03/21 13:45:49;;;;;;;15.48;6.97;;;;;;;11.70;41.79;101463.27;1713276;84;21204;-79
2022/03/21 13:48:55;;;;;;;17.45;5.97;;;;;;;11.74;41.91;101464.69;1711960;84;21826;-79
2022/03/21 13:52:03;;;;;;;13.88;5.33;;;;;;;11.77;41.59;101462.16;1677657;84;21301;-79
2022/03/21 13:55:08;;;;;;;14.90;5.33;;;;;;;11.73;41.72;101462.97;1713489;84;21247;-80
2022/03/21 13:58:15;;;;;;;8.78;3.85;;;;;;;11.68;41.69;101457.60;1713403;84;21841;-79
2022/03/21 14:01:29;;;;;;;23.27;13.20;;;;;;;11.63;41.93;101459.44;1713377;84;21283;-79
2022/03/21 14:04:37;;;;;;;13.58;5.47;;;;;;;11.61;41.96;101461.97;1713420;84;21262;-79
2022/03/21 14:07:42;;;;;;;19.35;6.60;;;;;;;11.58;42.15;101463.16;1696670;83;21284;-79
2022/03/21 14:10:55;;;;;;;10.28;4.15;;;;;;;11.58;42.26;101455.45;1713260;84;21244;-79
2022/03/21 14:14:03;;;;;;;12.45;4.67;;;;;;;11.52;42.37;101459.12;1713437;84;21204;-78
2022/03/21 14:17:09;;;;;;;15.20;5.08;;;;;;;11.50;42.33;101450.73;1712050;83;21247;-79
2022/03/21 14:20:17;;;;;;;12.47;4.90;;;;;;;11.47;42.38;101460.62;1711705;84;21196;-79
2022/03/21 14:23:23;;;;;;;14.50;4.22;;;;;;;11.44;42.47;101450.84;1711745;84;21232;-79
2022/03/21 14:26:38;;;;;;;11.10;3.62;;;;;;;11.42;42.55;101460.22;1711261;84;21774;-79
2022/03/21 14:29:38;;;;;;;11.73;4.12;;;;;;;11.39;42.47;101447.71;1701843;84;21705;-79
2022/03/21 14:32:44;;;;;;;12.98;4.40;;;;;;;11.34;42.71;101456.01;1700602;84;21779;-78
2022/03/21 14:35:49;;;;;;;9.90;4.42;;;;;;;11.31;42.77;101453.09;1702072;84;21213;-79
2022/03/21 14:38:56;;;;;;;8.55;3.67;;;;;;;11.29;42.86;101456.98;1702208;84;21747;-79
2022/03/21 14:42:02;;;;;;;13.58;3.37;;;;;;;11.25;43.06;101453.20;1701836;84;21256;-79
2022/03/21 14:45:09;;;;;;;8.68;3.27;;;;;;;11.21;42.97;101464.09;1701909;84;21232;-79